sensor_id;sensor_type;location;lat;lon;timestamp;P1;durP1;ratioP1;P2;durP2;ratioP2
57832;SDS011;43667;53.036;6.740;2023-04-01T00:02:18;12.52;;;9.38;;
57832;SDS011;43667;53.036;6.740;2023-04-01T00:04:43;13.18;;;10.35;;
57832;SDS011;43667;53.036;6.740;2023-04-01T00:07:09;12.13;;;10.23;;
57832;SDS011;43667;53.036;6.740;2023-04-01T00:09:35;13.40;;;10.23;;
57832;SDS011;43667;53.036;6.740;2023-04-01T00:12:01;10.13;;;9.13;;
57832;SDS011;43667;53.036;6.740;2023-04-01T00:14:27;10.90;;;9.15;;
57832;SDS011;43667;53.036;6.740;2023-04-01T00:16:53;12.60;;;9.80;;
57832;SDS011;43667;53.036;6.740;2023-04-01T00:19:19;11.45;;;10.05;;
57832;SDS011;43667;53.036;6.740;2023-04-01T00:21:45;11.50;;;10.05;;
57832;SDS011;43667;53.036;6.740;2023-04-01T00:24:11;14.23;;;10.23;;
57832;SDS011;43667;53.036;6.740;2023-04-01T00:26:37;11.50;;;10.13;;
57832;SDS011;43667;53.036;6.740;2023-04-01T00:29:02;12.50;;;10.57;;
57832;SDS011;43667;53.036;6.740;2023-04-01T00:31:28;12.23;;;10.48;;
57832;SDS011;43667;53.036;6.740;2023-04-01T00:33:54;14.20;;;10.77;;
57832;SDS011;43667;53.036;6.740;2023-04-01T00:36:21;12.88;;;10.80;;
57832;SDS011;43667;53.036;6.740;2023-04-01T00:38:48;14.30;;;11.15;;
57832;SDS011;43667;53.036;6.740;2023-04-01T00:41:15;14.48;;;10.20;;
57832;SDS011;43667;53.036;6.740;2023-04-01T00:43:43;13.52;;;10.38;;
57832;SDS011;43667;53.036;6.740;2023-04-01T00:46:10;12.45;;;9.93;;
57832;SDS011;43667;53.036;6.740;2023-04-01T00:48:38;11.77;;;10.55;;
57832;SDS011;43667;53.036;6.740;2023-04-01T00:51:14;13.70;;;10.27;;
57832;SDS011;43667;53.036;6.740;2023-04-01T00:53:45;13.82;;;9.63;;
57832;SDS011;43667;53.036;6.740;2023-04-01T00:56:25;11.88;;;9.93;;
57832;SDS011;43667;53.036;6.740;2023-04-01T00:58:58;10.15;;;9.15;;
57832;SDS011;43667;53.036;6.740;2023-04-01T01:01:46;12.98;;;10.23;;
57832;SDS011;43667;53.036;6.740;2023-04-01T01:04:28;16.30;;;10.43;;
57832;SDS011;43667;53.036;6.740;2023-04-01T01:09:25;12.77;;;9.85;;
57832;SDS011;43667;53.036;6.740;2023-04-01T01:12:18;13.15;;;10.05;;
57832;SDS011;43667;53.036;6.740;2023-04-01T01:20:22;13.38;;;9.82;;
57832;SDS011;43667;53.036;6.740;2023-04-01T01:26:11;14.43;;;9.95;;
57832;SDS011;43667;53.036;6.740;2023-04-01T01:36:44;11.32;;;8.98;;
57832;SDS011;43667;53.036;6.740;2023-04-01T01:39:16;12.07;;;9.63;;
57832;SDS011;43667;53.036;6.740;2023-04-01T01:41:43;10.98;;;9.65;;
57832;SDS011;43667;53.036;6.740;2023-04-01T01:44:14;18.83;;;10.52;;
57832;SDS011;43667;53.036;6.740;2023-04-01T01:46:41;12.25;;;10.25;;
57832;SDS011;43667;53.036;6.740;2023-04-01T01:49:08;13.85;;;10.07;;
57832;SDS011;43667;53.036;6.740;2023-04-01T01:51:35;14.65;;;10.18;;
57832;SDS011;43667;53.036;6.740;2023-04-01T01:54:01;11.88;;;9.50;;
57832;SDS011;43667;53.036;6.740;2023-04-01T01:56:27;14.18;;;10.60;;
57832;SDS011;43667;53.036;6.740;2023-04-01T01:58:57;10.90;;;9.63;;
57832;SDS011;43667;53.036;6.740;2023-04-01T02:01:28;10.73;;;9.57;;
57832;SDS011;43667;53.036;6.740;2023-04-01T02:03:56;14.60;;;10.57;;
57832;SDS011;43667;53.036;6.740;2023-04-01T02:06:24;17.10;;;11.93;;
57832;SDS011;43667;53.036;6.740;2023-04-01T02:08:57;14.52;;;10.60;;
57832;SDS011;43667;53.036;6.740;2023-04-01T02:11:29;12.02;;;9.48;;
57832;SDS011;43667;53.036;6.740;2023-04-01T02:14:01;13.60;;;10.32;;
57832;SDS011;43667;53.036;6.740;2023-04-01T02:16:36;14.25;;;10.05;;
57832;SDS011;43667;53.036;6.740;2023-04-01T02:19:07;14.55;;;10.15;;
57832;SDS011;43667;53.036;6.740;2023-04-01T02:21:35;11.95;;;9.95;;
57832;SDS011;43667;53.036;6.740;2023-04-01T02:24:04;17.77;;;10.90;;
57832;SDS011;43667;53.036;6.740;2023-04-01T02:26:33;15.48;;;9.95;;
57832;SDS011;43667;53.036;6.740;2023-04-01T02:28:59;13.38;;;10.32;;
57832;SDS011;43667;53.036;6.740;2023-04-01T02:31:26;12.15;;;10.65;;
57832;SDS011;43667;53.036;6.740;2023-04-01T02:33:52;11.25;;;10.05;;
57832;SDS011;43667;53.036;6.740;2023-04-01T02:36:19;13.70;;;10.52;;
57832;SDS011;43667;53.036;6.740;2023-04-01T02:38:45;11.27;;;9.68;;
57832;SDS011;43667;53.036;6.740;2023-04-01T02:41:12;13.60;;;9.90;;
57832;SDS011;43667;53.036;6.740;2023-04-01T02:43:38;12.57;;;9.55;;
57832;SDS011;43667;53.036;6.740;2023-04-01T02:46:03;15.68;;;11.15;;
57832;SDS011;43667;53.036;6.740;2023-04-01T02:48:29;26.95;;;11.50;;
57832;SDS011;43667;53.036;6.740;2023-04-01T02:50:55;17.25;;;11.18;;
57832;SDS011;43667;53.036;6.740;2023-04-01T02:53:21;25.67;;;11.98;;
57832;SDS011;43667;53.036;6.740;2023-04-01T02:55:47;15.55;;;11.20;;
57832;SDS011;43667;53.036;6.740;2023-04-01T02:58:15;63.55;;;14.77;;
57832;SDS011;43667;53.036;6.740;2023-04-01T03:00:41;30.95;;;13.27;;
57832;SDS011;43667;53.036;6.740;2023-04-01T03:03:07;32.33;;;14.45;;
57832;SDS011;43667;53.036;6.740;2023-04-01T03:05:33;17.98;;;13.80;;
57832;SDS011;43667;53.036;6.740;2023-04-01T03:07:58;36.28;;;16.30;;
57832;SDS011;43667;53.036;6.740;2023-04-01T03:10:24;74.28;;;18.70;;
57832;SDS011;43667;53.036;6.740;2023-04-01T03:12:50;23.20;;;16.35;;
57832;SDS011;43667;53.036;6.740;2023-04-01T03:15:15;25.15;;;16.33;;
57832;SDS011;43667;53.036;6.740;2023-04-01T03:17:41;30.75;;;17.17;;
57832;SDS011;43667;53.036;6.740;2023-04-01T03:20:08;23.85;;;16.75;;
57832;SDS011;43667;53.036;6.740;2023-04-01T03:22:35;29.10;;;17.20;;
57832;SDS011;43667;53.036;6.740;2023-04-01T03:25:02;26.33;;;16.73;;
57832;SDS011;43667;53.036;6.740;2023-04-01T03:27:28;29.80;;;17.33;;
57832;SDS011;43667;53.036;6.740;2023-04-01T03:29:54;30.15;;;16.73;;
57832;SDS011;43667;53.036;6.740;2023-04-01T03:32:20;47.33;;;17.67;;
57832;SDS011;43667;53.036;6.740;2023-04-01T03:34:45;29.85;;;16.25;;
57832;SDS011;43667;53.036;6.740;2023-04-01T03:37:11;16.60;;;14.32;;
57832;SDS011;43667;53.036;6.740;2023-04-01T03:39:37;27.63;;;14.77;;
57832;SDS011;43667;53.036;6.740;2023-04-01T03:42:03;25.83;;;14.80;;
57832;SDS011;43667;53.036;6.740;2023-04-01T03:44:35;38.47;;;15.05;;
57832;SDS011;43667;53.036;6.740;2023-04-01T03:47:01;36.22;;;14.30;;
57832;SDS011;43667;53.036;6.740;2023-04-01T03:49:26;43.30;;;14.45;;
57832;SDS011;43667;53.036;6.740;2023-04-01T03:51:53;63.58;;;16.02;;
57832;SDS011;43667;53.036;6.740;2023-04-01T03:54:19;23.42;;;13.48;;
57832;SDS011;43667;53.036;6.740;2023-04-01T03:56:45;75.75;;;16.38;;
57832;SDS011;43667;53.036;6.740;2023-04-01T03:59:11;24.10;;;13.60;;
57832;SDS011;43667;53.036;6.740;2023-04-01T04:01:37;27.02;;;14.57;;
57832;SDS011;43667;53.036;6.740;2023-04-01T04:04:03;44.40;;;15.32;;
57832;SDS011;43667;53.036;6.740;2023-04-01T04:06:30;22.17;;;14.00;;
57832;SDS011;43667;53.036;6.740;2023-04-01T04:08:55;33.78;;;14.48;;
57832;SDS011;43667;53.036;6.740;2023-04-01T04:11:21;35.53;;;15.30;;
57832;SDS011;43667;53.036;6.740;2023-04-01T04:13:48;22.58;;;14.85;;
57832;SDS011;43667;53.036;6.740;2023-04-01T04:16:14;20.60;;;13.50;;
57832;SDS011;43667;53.036;6.740;2023-04-01T04:18:40;27.45;;;16.13;;
57832;SDS011;43667;53.036;6.740;2023-04-01T04:21:06;18.67;;;13.80;;
57832;SDS011;43667;53.036;6.740;2023-04-01T04:23:32;25.83;;;14.57;;
57832;SDS011;43667;53.036;6.740;2023-04-01T04:28:29;20.63;;;14.18;;
57832;SDS011;43667;53.036;6.740;2023-04-01T04:30:55;65.00;;;17.10;;
57832;SDS011;43667;53.036;6.740;2023-04-01T04:33:24;22.83;;;15.20;;
57832;SDS011;43667;53.036;6.740;2023-04-01T04:35:50;41.10;;;18.05;;
57832;SDS011;43667;53.036;6.740;2023-04-01T04:38:16;21.77;;;15.68;;
57832;SDS011;43667;53.036;6.740;2023-04-01T04:40:42;21.45;;;16.08;;
57832;SDS011;43667;53.036;6.740;2023-04-01T04:43:12;24.30;;;15.65;;
57832;SDS011;43667;53.036;6.740;2023-04-01T04:45:39;23.08;;;17.05;;
57832;SDS011;43667;53.036;6.740;2023-04-01T04:48:07;26.02;;;17.38;;
57832;SDS011;43667;53.036;6.740;2023-04-01T04:50:34;53.85;;;18.50;;
57832;SDS011;43667;53.036;6.740;2023-04-01T04:53:00;26.80;;;17.83;;
57832;SDS011;43667;53.036;6.740;2023-04-01T04:55:26;28.13;;;18.38;;
57832;SDS011;43667;53.036;6.740;2023-04-01T04:57:51;29.05;;;18.13;;
57832;SDS011;43667;53.036;6.740;2023-04-01T05:00:17;26.10;;;18.00;;
57832;SDS011;43667;53.036;6.740;2023-04-01T05:02:43;58.22;;;19.35;;
57832;SDS011;43667;53.036;6.740;2023-04-01T05:05:08;44.00;;;17.90;;
57832;SDS011;43667;53.036;6.740;2023-04-01T05:07:35;40.33;;;19.60;;
57832;SDS011;43667;53.036;6.740;2023-04-01T05:10:01;24.95;;;15.82;;
57832;SDS011;43667;53.036;6.740;2023-04-01T05:12:27;30.98;;;14.88;;
57832;SDS011;43667;53.036;6.740;2023-04-01T05:14:52;31.27;;;12.32;;
57832;SDS011;43667;53.036;6.740;2023-04-01T05:17:18;17.00;;;12.13;;
57832;SDS011;43667;53.036;6.740;2023-04-01T05:19:44;13.10;;;10.60;;
57832;SDS011;43667;53.036;6.740;2023-04-01T05:22:10;18.83;;;10.88;;
57832;SDS011;43667;53.036;6.740;2023-04-01T05:24:35;15.18;;;10.48;;
57832;SDS011;43667;53.036;6.740;2023-04-01T05:27:01;14.27;;;10.65;;
57832;SDS011;43667;53.036;6.740;2023-04-01T05:29:26;24.48;;;10.95;;
57832;SDS011;43667;53.036;6.740;2023-04-01T05:31:52;21.48;;;11.38;;
57832;SDS011;43667;53.036;6.740;2023-04-01T05:34:18;20.95;;;12.07;;
57832;SDS011;43667;53.036;6.740;2023-04-01T05:36:43;13.38;;;10.15;;
57832;SDS011;43667;53.036;6.740;2023-04-01T05:39:09;15.95;;;11.18;;
57832;SDS011;43667;53.036;6.740;2023-04-01T05:41:36;17.23;;;11.52;;
57832;SDS011;43667;53.036;6.740;2023-04-01T05:44:02;21.65;;;13.18;;
57832;SDS011;43667;53.036;6.740;2023-04-01T05:46:29;28.77;;;15.07;;
57832;SDS011;43667;53.036;6.740;2023-04-01T05:48:54;21.55;;;13.15;;
57832;SDS011;43667;53.036;6.740;2023-04-01T05:51:20;19.48;;;11.55;;
57832;SDS011;43667;53.036;6.740;2023-04-01T05:53:45;16.23;;;11.57;;
57832;SDS011;43667;53.036;6.740;2023-04-01T05:56:11;16.88;;;12.25;;
57832;SDS011;43667;53.036;6.740;2023-04-01T05:58:38;19.08;;;13.45;;
57832;SDS011;43667;53.036;6.740;2023-04-01T06:01:05;22.65;;;14.00;;
57832;SDS011;43667;53.036;6.740;2023-04-01T06:03:32;27.45;;;15.90;;
57832;SDS011;43667;53.036;6.740;2023-04-01T06:05:58;28.13;;;18.63;;
57832;SDS011;43667;53.036;6.740;2023-04-01T06:08:24;23.52;;;17.90;;
57832;SDS011;43667;53.036;6.740;2023-04-01T06:10:57;34.88;;;20.10;;
57832;SDS011;43667;53.036;6.740;2023-04-01T06:21:52;41.55;;;24.55;;
57832;SDS011;43667;53.036;6.740;2023-04-01T06:32:48;37.28;;;25.58;;
57832;SDS011;43667;53.036;6.740;2023-04-01T06:38:04;38.30;;;24.02;;
57832;SDS011;43667;53.036;6.740;2023-04-01T06:46:23;31.63;;;23.65;;
57832;SDS011;43667;53.036;6.740;2023-04-01T06:54:38;34.70;;;23.50;;
57832;SDS011;43667;53.036;6.740;2023-04-01T06:59:48;31.20;;;23.30;;
57832;SDS011;43667;53.036;6.740;2023-04-01T07:02:22;31.38;;;22.02;;
57832;SDS011;43667;53.036;6.740;2023-04-01T07:04:50;33.97;;;22.55;;
57832;SDS011;43667;53.036;6.740;2023-04-01T07:10:22;30.25;;;21.58;;
57832;SDS011;43667;53.036;6.740;2023-04-01T07:12:58;36.53;;;24.35;;
57832;SDS011;43667;53.036;6.740;2023-04-01T07:15:33;46.88;;;22.73;;
57832;SDS011;43667;53.036;6.740;2023-04-01T07:18:07;28.45;;;22.52;;
57832;SDS011;43667;53.036;6.740;2023-04-01T07:20:42;42.08;;;23.52;;
57832;SDS011;43667;53.036;6.740;2023-04-01T07:23:15;44.42;;;22.50;;
57832;SDS011;43667;53.036;6.740;2023-04-01T07:25:47;41.40;;;23.05;;
57832;SDS011;43667;53.036;6.740;2023-04-01T07:28:30;25.30;;;20.73;;
57832;SDS011;43667;53.036;6.740;2023-04-01T07:31:05;22.98;;;20.42;;
57832;SDS011;43667;53.036;6.740;2023-04-01T07:36:22;26.38;;;21.73;;
57832;SDS011;43667;53.036;6.740;2023-04-01T07:39:42;30.00;;;21.23;;
57832;SDS011;43667;53.036;6.740;2023-04-01T07:45:30;27.60;;;20.65;;
57832;SDS011;43667;53.036;6.740;2023-04-01T07:48:13;24.83;;;20.35;;
57832;SDS011;43667;53.036;6.740;2023-04-01T07:53:33;18.63;;;16.80;;
57832;SDS011;43667;53.036;6.740;2023-04-01T07:56:18;28.98;;;19.38;;
57832;SDS011;43667;53.036;6.740;2023-04-01T07:59:18;19.08;;;17.20;;
57832;SDS011;43667;53.036;6.740;2023-04-01T08:02:01;20.30;;;18.20;;
57832;SDS011;43667;53.036;6.740;2023-04-01T08:07:18;19.17;;;17.27;;
57832;SDS011;43667;53.036;6.740;2023-04-01T08:09:57;17.38;;;15.57;;
57832;SDS011;43667;53.036;6.740;2023-04-01T08:12:41;18.67;;;16.67;;
57832;SDS011;43667;53.036;6.740;2023-04-01T08:15:16;17.60;;;15.90;;
57832;SDS011;43667;53.036;6.740;2023-04-01T08:18:02;16.30;;;14.70;;
57832;SDS011;43667;53.036;6.740;2023-04-01T08:20:49;17.45;;;15.60;;
57832;SDS011;43667;53.036;6.740;2023-04-01T08:23:32;17.48;;;15.68;;
57832;SDS011;43667;53.036;6.740;2023-04-01T08:28:56;15.90;;;14.25;;
57832;SDS011;43667;53.036;6.740;2023-04-01T08:32:11;15.70;;;14.00;;
57832;SDS011;43667;53.036;6.740;2023-04-01T08:34:37;16.77;;;14.98;;
57832;SDS011;43667;53.036;6.740;2023-04-01T08:37:07;17.30;;;14.80;;
57832;SDS011;43667;53.036;6.740;2023-04-01T08:39:46;17.85;;;15.75;;
57832;SDS011;43667;53.036;6.740;2023-04-01T08:58:59;15.95;;;13.65;;
57832;SDS011;43667;53.036;6.740;2023-04-01T09:01:49;15.48;;;13.95;;
57832;SDS011;43667;53.036;6.740;2023-04-01T09:07:32;16.77;;;14.50;;
57832;SDS011;43667;53.036;6.740;2023-04-01T09:10:17;16.58;;;15.05;;
57832;SDS011;43667;53.036;6.740;2023-04-01T09:13:14;17.33;;;15.65;;
57832;SDS011;43667;53.036;6.740;2023-04-01T09:22:36;15.90;;;14.40;;
57832;SDS011;43667;53.036;6.740;2023-04-01T09:25:12;15.57;;;14.18;;
57832;SDS011;43667;53.036;6.740;2023-04-01T09:28:01;15.98;;;14.38;;
57832;SDS011;43667;53.036;6.740;2023-04-01T09:30:41;15.55;;;14.05;;
57832;SDS011;43667;53.036;6.740;2023-04-01T09:36:33;15.55;;;13.93;;
57832;SDS011;43667;53.036;6.740;2023-04-01T09:39:46;12.52;;;11.35;;
57832;SDS011;43667;53.036;6.740;2023-04-01T09:50:38;10.70;;;9.60;;
57832;SDS011;43667;53.036;6.740;2023-04-01T09:53:25;10.88;;;9.88;;
57832;SDS011;43667;53.036;6.740;2023-04-01T09:58:49;9.32;;;8.43;;
57832;SDS011;43667;53.036;6.740;2023-04-01T10:01:39;6.47;;;5.60;;
57832;SDS011;43667;53.036;6.740;2023-04-01T10:04:37;5.07;;;4.68;;
57832;SDS011;43667;53.036;6.740;2023-04-01T10:13:20;4.72;;;4.32;;
57832;SDS011;43667;53.036;6.740;2023-04-01T10:16:08;4.93;;;4.40;;
57832;SDS011;43667;53.036;6.740;2023-04-01T10:21:28;4.43;;;4.03;;
57832;SDS011;43667;53.036;6.740;2023-04-01T10:30:19;4.65;;;4.25;;
57832;SDS011;43667;53.036;6.740;2023-04-01T10:36:33;4.78;;;4.38;;
57832;SDS011;43667;53.036;6.740;2023-04-01T10:50:38;3.60;;;3.30;;
57832;SDS011;43667;53.036;6.740;2023-04-01T10:58:55;4.28;;;3.88;;
57832;SDS011;43667;53.036;6.740;2023-04-01T11:01:54;3.70;;;3.22;;
57832;SDS011;43667;53.036;6.740;2023-04-01T11:13:26;2.60;;;2.40;;
57832;SDS011;43667;53.036;6.740;2023-04-01T11:16:14;2.83;;;2.22;;
57832;SDS011;43667;53.036;6.740;2023-04-01T11:24:17;4.18;;;2.20;;
57832;SDS011;43667;53.036;6.740;2023-04-01T11:27:09;2.88;;;2.30;;
57832;SDS011;43667;53.036;6.740;2023-04-01T11:32:19;2.80;;;2.60;;
57832;SDS011;43667;53.036;6.740;2023-04-01T11:37:24;2.88;;;2.20;;
57832;SDS011;43667;53.036;6.740;2023-04-01T11:40:20;3.20;;;2.25;;
57832;SDS011;43667;53.036;6.740;2023-04-01T11:43:08;2.35;;;1.83;;
57832;SDS011;43667;53.036;6.740;2023-04-01T11:48:35;2.30;;;1.88;;
57832;SDS011;43667;53.036;6.740;2023-04-01T11:54:03;2.63;;;2.20;;
57832;SDS011;43667;53.036;6.740;2023-04-01T11:59:45;2.97;;;2.70;;
57832;SDS011;43667;53.036;6.740;2023-04-01T12:05:43;3.50;;;3.17;;
57832;SDS011;43667;53.036;6.740;2023-04-01T12:08:35;3.22;;;3.00;;
57832;SDS011;43667;53.036;6.740;2023-04-01T12:11:25;4.78;;;3.40;;
57832;SDS011;43667;53.036;6.740;2023-04-01T12:14:05;3.42;;;3.10;;
57832;SDS011;43667;53.036;6.740;2023-04-01T12:19:46;2.38;;;2.10;;
57832;SDS011;43667;53.036;6.740;2023-04-01T12:23:03;1.55;;;1.45;;
57832;SDS011;43667;53.036;6.740;2023-04-01T12:28:22;3.08;;;1.70;;
57832;SDS011;43667;53.036;6.740;2023-04-01T12:50:25;3.13;;;2.67;;
57832;SDS011;43667;53.036;6.740;2023-04-01T12:55:46;4.70;;;3.00;;
57832;SDS011;43667;53.036;6.740;2023-04-01T13:01:44;4.43;;;2.30;;
57832;SDS011;43667;53.036;6.740;2023-04-01T13:07:34;2.33;;;1.75;;
57832;SDS011;43667;53.036;6.740;2023-04-01T13:16:11;2.70;;;2.30;;
57832;SDS011;43667;53.036;6.740;2023-04-01T13:21:33;2.22;;;2.03;;
57832;SDS011;43667;53.036;6.740;2023-04-01T13:32:26;1.88;;;1.33;;
57832;SDS011;43667;53.036;6.740;2023-04-01T13:38:11;1.90;;;1.33;;
57832;SDS011;43667;53.036;6.740;2023-04-01T13:43:58;2.42;;;1.83;;
57832;SDS011;43667;53.036;6.740;2023-04-01T13:49:48;1.52;;;1.42;;
57832;SDS011;43667;53.036;6.740;2023-04-01T13:52:44;1.92;;;1.50;;
57832;SDS011;43667;53.036;6.740;2023-04-01T14:03:37;4.30;;;2.22;;
57832;SDS011;43667;53.036;6.740;2023-04-01T14:06:17;2.45;;;1.63;;
57832;SDS011;43667;53.036;6.740;2023-04-01T14:14:47;1.65;;;1.23;;
57832;SDS011;43667;53.036;6.740;2023-04-01T14:20:36;0.88;;;0.88;;
57832;SDS011;43667;53.036;6.740;2023-04-01T14:28:35;1.40;;;1.30;;
57832;SDS011;43667;53.036;6.740;2023-04-01T14:34:32;0.93;;;0.93;;
57832;SDS011;43667;53.036;6.740;2023-04-01T14:48:25;1.75;;;1.05;;
57832;SDS011;43667;53.036;6.740;2023-04-01T14:53:38;0.90;;;0.90;;
57832;SDS011;43667;53.036;6.740;2023-04-01T14:56:10;1.10;;;1.00;;
57832;SDS011;43667;53.036;6.740;2023-04-01T14:58:43;1.75;;;1.30;;
57832;SDS011;43667;53.036;6.740;2023-04-01T15:01:19;1.65;;;1.50;;
57832;SDS011;43667;53.036;6.740;2023-04-01T15:06:58;1.48;;;1.30;;
57832;SDS011;43667;53.036;6.740;2023-04-01T15:09:42;1.20;;;1.10;;
57832;SDS011;43667;53.036;6.740;2023-04-01T15:18:09;2.90;;;1.30;;
57832;SDS011;43667;53.036;6.740;2023-04-01T15:23:57;2.65;;;1.88;;
57832;SDS011;43667;53.036;6.740;2023-04-01T15:29:28;3.00;;;1.73;;
57832;SDS011;43667;53.036;6.740;2023-04-01T15:32:16;2.10;;;1.90;;
57832;SDS011;43667;53.036;6.740;2023-04-01T15:37:21;2.10;;;1.80;;
57832;SDS011;43667;53.036;6.740;2023-04-01T15:40:27;2.45;;;1.92;;
57832;SDS011;43667;53.036;6.740;2023-04-01T15:43:13;4.57;;;2.58;;
57832;SDS011;43667;53.036;6.740;2023-04-01T15:46:19;4.38;;;3.75;;
57832;SDS011;43667;53.036;6.740;2023-04-01T15:57:47;4.03;;;3.50;;
57832;SDS011;43667;53.036;6.740;2023-04-01T16:00:43;4.43;;;4.00;;
57832;SDS011;43667;53.036;6.740;2023-04-01T16:12:13;5.78;;;3.90;;
57832;SDS011;43667;53.036;6.740;2023-04-01T16:14:54;5.78;;;3.85;;
57832;SDS011;43667;53.036;6.740;2023-04-01T16:20:22;5.38;;;3.97;;
57832;SDS011;43667;53.036;6.740;2023-04-01T16:23:02;6.15;;;3.85;;
57832;SDS011;43667;53.036;6.740;2023-04-01T16:25:46;4.65;;;3.08;;
57832;SDS011;43667;53.036;6.740;2023-04-01T16:28:22;3.75;;;2.72;;
57832;SDS011;43667;53.036;6.740;2023-04-01T16:33:21;3.70;;;3.33;;
57832;SDS011;43667;53.036;6.740;2023-04-01T16:39:06;8.55;;;3.92;;
57832;SDS011;43667;53.036;6.740;2023-04-01T16:44:31;7.00;;;3.88;;
57832;SDS011;43667;53.036;6.740;2023-04-01T16:47:20;7.38;;;3.58;;
57832;SDS011;43667;53.036;6.740;2023-04-01T16:49:54;4.10;;;3.22;;
57832;SDS011;43667;53.036;6.740;2023-04-01T16:52:34;6.72;;;3.65;;
57832;SDS011;43667;53.036;6.740;2023-04-01T16:55:19;6.10;;;3.78;;
57832;SDS011;43667;53.036;6.740;2023-04-01T16:57:56;6.38;;;3.92;;
57832;SDS011;43667;53.036;6.740;2023-04-01T17:00:28;6.65;;;4.43;;
57832;SDS011;43667;53.036;6.740;2023-04-01T17:03:12;4.90;;;3.78;;
57832;SDS011;43667;53.036;6.740;2023-04-01T17:05:58;6.50;;;4.35;;
57832;SDS011;43667;53.036;6.740;2023-04-01T17:08:49;6.13;;;4.75;;
57832;SDS011;43667;53.036;6.740;2023-04-01T17:11:37;6.00;;;4.35;;
57832;SDS011;43667;53.036;6.740;2023-04-01T17:14:30;8.55;;;4.85;;
57832;SDS011;43667;53.036;6.740;2023-04-01T17:20:01;7.63;;;4.70;;
57832;SDS011;43667;53.036;6.740;2023-04-01T17:22:54;8.35;;;4.97;;
57832;SDS011;43667;53.036;6.740;2023-04-01T17:25:34;8.27;;;5.22;;
57832;SDS011;43667;53.036;6.740;2023-04-01T17:33:54;7.53;;;5.78;;
57832;SDS011;43667;53.036;6.740;2023-04-01T17:36:56;6.60;;;5.60;;
57832;SDS011;43667;53.036;6.740;2023-04-01T17:39:51;9.35;;;5.70;;
57832;SDS011;43667;53.036;6.740;2023-04-01T17:56:17;9.57;;;5.85;;
57832;SDS011;43667;53.036;6.740;2023-04-01T17:59:16;11.18;;;6.25;;
57832;SDS011;43667;53.036;6.740;2023-04-01T18:02:13;7.70;;;6.32;;
57832;SDS011;43667;53.036;6.740;2023-04-01T18:08:04;8.25;;;6.00;;
57832;SDS011;43667;53.036;6.740;2023-04-01T18:10:51;6.93;;;5.72;;
57832;SDS011;43667;53.036;6.740;2023-04-01T18:22:08;7.13;;;6.38;;
57832;SDS011;43667;53.036;6.740;2023-04-01T18:24:58;7.70;;;5.72;;
57832;SDS011;43667;53.036;6.740;2023-04-01T18:27:38;8.05;;;5.60;;
57832;SDS011;43667;53.036;6.740;2023-04-01T18:32:52;9.13;;;6.05;;
57832;SDS011;43667;53.036;6.740;2023-04-01T18:35:35;11.68;;;5.95;;
57832;SDS011;43667;53.036;6.740;2023-04-01T18:41:26;10.07;;;6.15;;
57832;SDS011;43667;53.036;6.740;2023-04-01T18:47:05;9.25;;;6.13;;
57832;SDS011;43667;53.036;6.740;2023-04-01T18:53:09;7.20;;;5.32;;
57832;SDS011;43667;53.036;6.740;2023-04-01T18:55:59;7.03;;;5.28;;
57832;SDS011;43667;53.036;6.740;2023-04-01T18:58:30;8.50;;;5.68;;
57832;SDS011;43667;53.036;6.740;2023-04-01T19:01:11;12.27;;;6.50;;
57832;SDS011;43667;53.036;6.740;2023-04-01T19:06:49;7.68;;;5.63;;
57832;SDS011;43667;53.036;6.740;2023-04-01T19:11:50;10.13;;;6.70;;
57832;SDS011;43667;53.036;6.740;2023-04-01T19:14:30;10.57;;;5.97;;
57832;SDS011;43667;53.036;6.740;2023-04-01T19:26:11;9.02;;;6.18;;
57832;SDS011;43667;53.036;6.740;2023-04-01T19:29:04;9.05;;;5.72;;
57832;SDS011;43667;53.036;6.740;2023-04-01T19:37:06;11.75;;;6.35;;
57832;SDS011;43667;53.036;6.740;2023-04-01T19:39:54;14.25;;;6.70;;
57832;SDS011;43667;53.036;6.740;2023-04-01T19:42:51;12.60;;;6.57;;
57832;SDS011;43667;53.036;6.740;2023-04-01T19:45:34;13.52;;;7.15;;
57832;SDS011;43667;53.036;6.740;2023-04-01T19:48:32;13.60;;;7.07;;
57832;SDS011;43667;53.036;6.740;2023-04-01T19:51:07;15.35;;;7.57;;
57832;SDS011;43667;53.036;6.740;2023-04-01T19:53:58;17.45;;;8.50;;
57832;SDS011;43667;53.036;6.740;2023-04-01T19:56:56;13.80;;;7.40;;
57832;SDS011;43667;53.036;6.740;2023-04-01T19:59:55;16.05;;;8.38;;
57832;SDS011;43667;53.036;6.740;2023-04-01T20:02:33;12.68;;;7.63;;
57832;SDS011;43667;53.036;6.740;2023-04-01T20:05:16;18.90;;;7.97;;
57832;SDS011;43667;53.036;6.740;2023-04-01T20:13:34;18.85;;;7.95;;
57832;SDS011;43667;53.036;6.740;2023-04-01T20:16:07;11.45;;;7.45;;
57832;SDS011;43667;53.036;6.740;2023-04-01T20:23:43;11.57;;;7.07;;
57832;SDS011;43667;53.036;6.740;2023-04-01T20:26:12;11.30;;;6.43;;
57832;SDS011;43667;53.036;6.740;2023-04-01T20:31:56;13.48;;;6.82;;
57832;SDS011;43667;53.036;6.740;2023-04-01T20:37:29;13.60;;;7.32;;
57832;SDS011;43667;53.036;6.740;2023-04-01T20:40:51;12.25;;;6.18;;
57832;SDS011;43667;53.036;6.740;2023-04-01T20:51:32;9.30;;;5.85;;
57832;SDS011;43667;53.036;6.740;2023-04-01T21:08:58;8.40;;;5.57;;
57832;SDS011;43667;53.036;6.740;2023-04-01T21:26:06;12.55;;;5.50;;
57832;SDS011;43667;53.036;6.740;2023-04-01T21:28:50;12.70;;;5.70;;
57832;SDS011;43667;53.036;6.740;2023-04-01T21:34:42;9.40;;;6.10;;
57832;SDS011;43667;53.036;6.740;2023-04-01T21:40:01;10.35;;;5.60;;
57832;SDS011;43667;53.036;6.740;2023-04-01T21:42:51;12.23;;;5.97;;
57832;SDS011;43667;53.036;6.740;2023-04-01T21:59:36;8.73;;;4.97;;
57832;SDS011;43667;53.036;6.740;2023-04-01T22:08:20;10.63;;;5.38;;
57832;SDS011;43667;53.036;6.740;2023-04-01T22:13:50;9.43;;;5.85;;
57832;SDS011;43667;53.036;6.740;2023-04-01T22:22:01;8.25;;;4.68;;
57832;SDS011;43667;53.036;6.740;2023-04-01T22:30:14;8.32;;;4.93;;
57832;SDS011;43667;53.036;6.740;2023-04-01T22:32:49;8.60;;;4.72;;
57832;SDS011;43667;53.036;6.740;2023-04-01T22:35:22;9.38;;;4.70;;
57832;SDS011;43667;53.036;6.740;2023-04-01T22:38:24;7.63;;;4.00;;
57832;SDS011;43667;53.036;6.740;2023-04-01T22:41:17;7.30;;;4.30;;
57832;SDS011;43667;53.036;6.740;2023-04-01T22:43:59;10.48;;;5.07;;
57832;SDS011;43667;53.036;6.740;2023-04-01T22:49:29;8.93;;;5.18;;
57832;SDS011;43667;53.036;6.740;2023-04-01T22:59:46;8.80;;;4.78;;
57832;SDS011;43667;53.036;6.740;2023-04-01T23:02:23;11.88;;;5.80;;
57832;SDS011;43667;53.036;6.740;2023-04-01T23:05:02;10.57;;;4.95;;
57832;SDS011;43667;53.036;6.740;2023-04-01T23:07:48;8.13;;;4.50;;
57832;SDS011;43667;53.036;6.740;2023-04-01T23:13:01;12.13;;;4.70;;
57832;SDS011;43667;53.036;6.740;2023-04-01T23:15:27;9.38;;;4.47;;
57832;SDS011;43667;53.036;6.740;2023-04-01T23:18:00;11.00;;;4.03;;
57832;SDS011;43667;53.036;6.740;2023-04-01T23:20:48;7.93;;;4.30;;
57832;SDS011;43667;53.036;6.740;2023-04-01T23:26:20;7.63;;;4.80;;
57832;SDS011;43667;53.036;6.740;2023-04-01T23:28:53;8.15;;;4.47;;
57832;SDS011;43667;53.036;6.740;2023-04-01T23:36:30;9.43;;;4.25;;
57832;SDS011;43667;53.036;6.740;2023-04-01T23:38:56;6.38;;;3.83;;
57832;SDS011;43667;53.036;6.740;2023-04-01T23:41:26;8.13;;;4.38;;
57832;SDS011;43667;53.036;6.740;2023-04-01T23:44:15;7.22;;;4.30;;
57832;SDS011;43667;53.036;6.740;2023-04-01T23:46:41;6.45;;;4.15;;
57832;SDS011;43667;53.036;6.740;2023-04-01T23:49:19;7.25;;;4.35;;
57832;SDS011;43667;53.036;6.740;2023-04-01T23:51:50;9.40;;;4.15;;
57832;SDS011;43667;53.036;6.740;2023-04-01T23:54:23;8.75;;;5.20;;